sensor_id;sensor_type;location;lat;lon;timestamp;P1;durP1;ratioP1;P2;durP2;ratioP2
61413;SDS011;47279;52.426;10.488;2022-10-29T00:02:09;204.93;;;188.50;;
61413;SDS011;47279;52.426;10.488;2022-10-29T00:04:35;200.38;;;184.52;;
61413;SDS011;47279;52.426;10.488;2022-10-29T00:07:01;202.05;;;186.05;;
61413;SDS011;47279;52.426;10.488;2022-10-29T00:09:27;204.55;;;188.18;;
61413;SDS011;47279;52.426;10.488;2022-10-29T00:11:53;206.82;;;190.50;;
61413;SDS011;47279;52.426;10.488;2022-10-29T00:14:19;201.73;;;185.68;;
61413;SDS011;47279;52.426;10.488;2022-10-29T00:16:45;203.73;;;187.45;;
61413;SDS011;47279;52.426;10.488;2022-10-29T00:19:11;196.77;;;180.77;;
61413;SDS011;47279;52.426;10.488;2022-10-29T00:21:37;197.98;;;182.23;;
61413;SDS011;47279;52.426;10.488;2022-10-29T00:24:04;197.25;;;181.52;;
61413;SDS011;47279;52.426;10.488;2022-10-29T00:26:30;195.05;;;179.40;;
61413;SDS011;47279;52.426;10.488;2022-10-29T00:28:57;197.13;;;181.25;;
61413;SDS011;47279;52.426;10.488;2022-10-29T00:31:23;195.23;;;179.73;;
61413;SDS011;47279;52.426;10.488;2022-10-29T00:33:50;206.68;;;190.23;;
61413;SDS011;47279;52.426;10.488;2022-10-29T00:36:17;200.50;;;184.45;;
61413;SDS011;47279;52.426;10.488;2022-10-29T00:38:44;197.05;;;181.35;;
61413;SDS011;47279;52.426;10.488;2022-10-29T00:41:11;197.80;;;182.02;;
61413;SDS011;47279;52.426;10.488;2022-10-29T00:43:40;191.75;;;176.15;;
61413;SDS011;47279;52.426;10.488;2022-10-29T00:46:07;190.38;;;175.13;;
61413;SDS011;47279;52.426;10.488;2022-10-29T00:48:34;195.63;;;179.65;;
61413;SDS011;47279;52.426;10.488;2022-10-29T00:51:02;192.40;;;176.80;;
61413;SDS011;47279;52.426;10.488;2022-10-29T00:53:29;191.90;;;176.32;;
61413;SDS011;47279;52.426;10.488;2022-10-29T00:55:57;188.60;;;173.40;;
61413;SDS011;47279;52.426;10.488;2022-10-29T00:58:24;192.88;;;177.07;;
61413;SDS011;47279;52.426;10.488;2022-10-29T01:00:50;189.35;;;173.77;;
61413;SDS011;47279;52.426;10.488;2022-10-29T01:03:16;191.07;;;175.55;;
61413;SDS011;47279;52.426;10.488;2022-10-29T01:05:42;190.85;;;175.55;;
61413;SDS011;47279;52.426;10.488;2022-10-29T01:08:09;185.23;;;170.00;;
61413;SDS011;47279;52.426;10.488;2022-10-29T01:15:39;185.80;;;170.45;;
61413;SDS011;47279;52.426;10.488;2022-10-29T01:38:48;178.82;;;164.15;;
61413;SDS011;47279;52.426;10.488;2022-10-29T01:44:13;180.82;;;165.93;;
61413;SDS011;47279;52.426;10.488;2022-10-29T01:46:47;180.65;;;165.85;;
61413;SDS011;47279;52.426;10.488;2022-10-29T01:49:16;178.18;;;163.50;;
61413;SDS011;47279;52.426;10.488;2022-10-29T01:51:43;181.10;;;166.10;;
61413;SDS011;47279;52.426;10.488;2022-10-29T01:54:10;180.52;;;165.57;;
61413;SDS011;47279;52.426;10.488;2022-10-29T01:56:36;175.32;;;160.73;;
61413;SDS011;47279;52.426;10.488;2022-10-29T01:59:04;180.18;;;165.10;;
61413;SDS011;47279;52.426;10.488;2022-10-29T02:06:27;173.13;;;158.85;;
61413;SDS011;47279;52.426;10.488;2022-10-29T02:09:06;174.52;;;160.05;;
61413;SDS011;47279;52.426;10.488;2022-10-29T02:16:45;174.82;;;160.52;;
61413;SDS011;47279;52.426;10.488;2022-10-29T02:19:11;173.10;;;158.90;;
61413;SDS011;47279;52.426;10.488;2022-10-29T02:21:38;177.23;;;162.77;;
61413;SDS011;47279;52.426;10.488;2022-10-29T02:24:05;172.32;;;158.07;;
61413;SDS011;47279;52.426;10.488;2022-10-29T02:26:31;175.77;;;161.13;;
61413;SDS011;47279;52.426;10.488;2022-10-29T02:28:57;168.23;;;154.27;;
61413;SDS011;47279;52.426;10.488;2022-10-29T02:31:23;171.63;;;157.70;;
61413;SDS011;47279;52.426;10.488;2022-10-29T02:33:49;168.65;;;154.70;;
61413;SDS011;47279;52.426;10.488;2022-10-29T02:36:15;170.88;;;156.77;;
61413;SDS011;47279;52.426;10.488;2022-10-29T02:38:41;171.35;;;157.38;;
61413;SDS011;47279;52.426;10.488;2022-10-29T02:41:07;172.07;;;157.63;;
61413;SDS011;47279;52.426;10.488;2022-10-29T02:43:33;170.40;;;156.30;;
61413;SDS011;47279;52.426;10.488;2022-10-29T02:46:08;165.63;;;151.82;;
61413;SDS011;47279;52.426;10.488;2022-10-29T02:48:34;163.63;;;150.05;;
61413;SDS011;47279;52.426;10.488;2022-10-29T02:51:00;164.18;;;150.50;;
61413;SDS011;47279;52.426;10.488;2022-10-29T02:53:26;168.57;;;154.75;;
61413;SDS011;47279;52.426;10.488;2022-10-29T02:55:52;167.00;;;153.15;;
61413;SDS011;47279;52.426;10.488;2022-10-29T02:58:18;167.18;;;153.40;;
61413;SDS011;47279;52.426;10.488;2022-10-29T03:00:47;164.65;;;151.30;;
61413;SDS011;47279;52.426;10.488;2022-10-29T03:03:13;162.18;;;148.57;;
61413;SDS011;47279;52.426;10.488;2022-10-29T03:05:39;164.15;;;150.55;;
61413;SDS011;47279;52.426;10.488;2022-10-29T03:08:05;165.82;;;152.32;;
61413;SDS011;47279;52.426;10.488;2022-10-29T03:10:31;164.15;;;150.80;;
61413;SDS011;47279;52.426;10.488;2022-10-29T03:12:58;164.93;;;151.25;;
61413;SDS011;47279;52.426;10.488;2022-10-29T03:15:24;162.93;;;149.48;;
61413;SDS011;47279;52.426;10.488;2022-10-29T03:17:50;163.23;;;149.75;;
61413;SDS011;47279;52.426;10.488;2022-10-29T03:20:16;159.40;;;146.18;;
61413;SDS011;47279;52.426;10.488;2022-10-29T03:22:42;159.55;;;146.45;;
61413;SDS011;47279;52.426;10.488;2022-10-29T03:25:08;161.65;;;148.20;;
61413;SDS011;47279;52.426;10.488;2022-10-29T03:27:40;163.00;;;149.57;;
61413;SDS011;47279;52.426;10.488;2022-10-29T03:30:07;159.32;;;146.02;;
61413;SDS011;47279;52.426;10.488;2022-10-29T03:32:33;157.90;;;144.80;;
61413;SDS011;47279;52.426;10.488;2022-10-29T03:34:59;157.25;;;144.15;;
61413;SDS011;47279;52.426;10.488;2022-10-29T03:37:25;154.18;;;141.32;;
61413;SDS011;47279;52.426;10.488;2022-10-29T03:39:51;154.82;;;141.98;;
61413;SDS011;47279;52.426;10.488;2022-10-29T03:42:17;159.05;;;145.95;;
61413;SDS011;47279;52.426;10.488;2022-10-29T03:44:43;155.15;;;142.20;;
61413;SDS011;47279;52.426;10.488;2022-10-29T03:47:09;153.00;;;140.38;;
61413;SDS011;47279;52.426;10.488;2022-10-29T03:49:35;153.88;;;141.30;;
61413;SDS011;47279;52.426;10.488;2022-10-29T03:52:01;156.50;;;143.50;;
61413;SDS011;47279;52.426;10.488;2022-10-29T03:54:27;154.23;;;141.63;;
61413;SDS011;47279;52.426;10.488;2022-10-29T03:56:53;152.77;;;140.18;;
61413;SDS011;47279;52.426;10.488;2022-10-29T03:59:19;151.00;;;138.68;;
61413;SDS011;47279;52.426;10.488;2022-10-29T04:01:44;151.88;;;139.52;;
61413;SDS011;47279;52.426;10.488;2022-10-29T04:04:10;150.05;;;137.57;;
61413;SDS011;47279;52.426;10.488;2022-10-29T04:06:36;149.70;;;137.23;;
61413;SDS011;47279;52.426;10.488;2022-10-29T04:09:02;153.25;;;140.70;;
61413;SDS011;47279;52.426;10.488;2022-10-29T04:11:28;146.73;;;134.52;;
61413;SDS011;47279;52.426;10.488;2022-10-29T04:13:54;150.57;;;138.10;;
61413;SDS011;47279;52.426;10.488;2022-10-29T04:16:20;152.70;;;140.05;;
61413;SDS011;47279;52.426;10.488;2022-10-29T04:18:47;150.73;;;138.43;;
61413;SDS011;47279;52.426;10.488;2022-10-29T04:21:13;149.18;;;136.75;;
61413;SDS011;47279;52.426;10.488;2022-10-29T04:23:39;147.80;;;135.52;;
61413;SDS011;47279;52.426;10.488;2022-10-29T04:26:05;148.80;;;136.50;;
61413;SDS011;47279;52.426;10.488;2022-10-29T04:28:31;147.07;;;135.13;;
61413;SDS011;47279;52.426;10.488;2022-10-29T04:31:01;144.70;;;133.05;;
61413;SDS011;47279;52.426;10.488;2022-10-29T04:33:27;147.65;;;135.43;;
61413;SDS011;47279;52.426;10.488;2022-10-29T04:35:53;148.43;;;136.27;;
61413;SDS011;47279;52.426;10.488;2022-10-29T04:38:20;147.25;;;135.18;;
61413;SDS011;47279;52.426;10.488;2022-10-29T04:40:46;144.68;;;132.68;;
61413;SDS011;47279;52.426;10.488;2022-10-29T04:43:12;144.85;;;133.00;;
61413;SDS011;47279;52.426;10.488;2022-10-29T04:45:38;141.38;;;129.65;;
61413;SDS011;47279;52.426;10.488;2022-10-29T04:48:04;145.90;;;133.98;;
61413;SDS011;47279;52.426;10.488;2022-10-29T04:50:31;139.25;;;127.82;;
61413;SDS011;47279;52.426;10.488;2022-10-29T04:52:58;141.50;;;129.90;;
61413;SDS011;47279;52.426;10.488;2022-10-29T04:55:24;141.45;;;129.77;;
61413;SDS011;47279;52.426;10.488;2022-10-29T04:57:50;138.15;;;126.90;;
61413;SDS011;47279;52.426;10.488;2022-10-29T05:00:16;138.43;;;126.93;;
61413;SDS011;47279;52.426;10.488;2022-10-29T05:02:46;137.63;;;126.20;;
61413;SDS011;47279;52.426;10.488;2022-10-29T05:07:38;139.90;;;128.48;;
61413;SDS011;47279;52.426;10.488;2022-10-29T05:10:04;136.70;;;125.35;;
61413;SDS011;47279;52.426;10.488;2022-10-29T05:12:30;136.85;;;125.57;;
61413;SDS011;47279;52.426;10.488;2022-10-29T05:14:56;135.27;;;124.22;;
61413;SDS011;47279;52.426;10.488;2022-10-29T05:17:22;135.55;;;124.15;;
61413;SDS011;47279;52.426;10.488;2022-10-29T05:19:48;136.35;;;125.00;;
61413;SDS011;47279;52.426;10.488;2022-10-29T05:22:14;134.13;;;123.22;;
61413;SDS011;47279;52.426;10.488;2022-10-29T05:24:40;134.52;;;123.43;;
61413;SDS011;47279;52.426;10.488;2022-10-29T05:27:06;131.50;;;120.63;;
61413;SDS011;47279;52.426;10.488;2022-10-29T05:29:33;131.60;;;120.82;;
61413;SDS011;47279;52.426;10.488;2022-10-29T05:31:58;134.48;;;123.55;;
61413;SDS011;47279;52.426;10.488;2022-10-29T05:34:25;133.45;;;122.45;;
61413;SDS011;47279;52.426;10.488;2022-10-29T05:36:51;128.85;;;118.32;;
61413;SDS011;47279;52.426;10.488;2022-10-29T05:39:17;133.00;;;122.22;;
61413;SDS011;47279;52.426;10.488;2022-10-29T05:41:42;133.93;;;123.13;;
61413;SDS011;47279;52.426;10.488;2022-10-29T05:44:08;129.68;;;118.97;;
61413;SDS011;47279;52.426;10.488;2022-10-29T05:46:34;128.65;;;118.13;;
61413;SDS011;47279;52.426;10.488;2022-10-29T05:49:00;130.10;;;119.57;;
61413;SDS011;47279;52.426;10.488;2022-10-29T05:51:26;133.35;;;122.45;;
61413;SDS011;47279;52.426;10.488;2022-10-29T05:53:52;131.68;;;119.75;;
61413;SDS011;47279;52.426;10.488;2022-10-29T05:56:18;128.73;;;118.22;;
61413;SDS011;47279;52.426;10.488;2022-10-29T05:58:47;127.95;;;117.05;;
61413;SDS011;47279;52.426;10.488;2022-10-29T06:01:13;128.40;;;117.88;;
61413;SDS011;47279;52.426;10.488;2022-10-29T06:03:39;122.22;;;112.22;;
61413;SDS011;47279;52.426;10.488;2022-10-29T06:06:05;125.72;;;115.13;;
61413;SDS011;47279;52.426;10.488;2022-10-29T06:08:31;124.18;;;113.88;;
61413;SDS011;47279;52.426;10.488;2022-10-29T06:10:59;122.35;;;112.35;;
61413;SDS011;47279;52.426;10.488;2022-10-29T06:13:25;125.38;;;115.28;;
61413;SDS011;47279;52.426;10.488;2022-10-29T06:15:54;122.32;;;112.10;;
61413;SDS011;47279;52.426;10.488;2022-10-29T06:18:20;120.63;;;110.90;;
61413;SDS011;47279;52.426;10.488;2022-10-29T06:20:46;124.70;;;114.50;;
61413;SDS011;47279;52.426;10.488;2022-10-29T06:23:12;120.65;;;110.95;;
61413;SDS011;47279;52.426;10.488;2022-10-29T06:25:38;120.28;;;110.28;;
61413;SDS011;47279;52.426;10.488;2022-10-29T06:28:11;121.90;;;111.95;;
61413;SDS011;47279;52.426;10.488;2022-10-29T06:30:39;117.07;;;107.43;;
61413;SDS011;47279;52.426;10.488;2022-10-29T06:33:05;116.63;;;107.03;;
61413;SDS011;47279;52.426;10.488;2022-10-29T06:35:32;119.93;;;110.03;;
61413;SDS011;47279;52.426;10.488;2022-10-29T06:37:58;117.40;;;107.80;;
61413;SDS011;47279;52.426;10.488;2022-10-29T06:40:24;118.75;;;108.85;;
61413;SDS011;47279;52.426;10.488;2022-10-29T06:43:00;118.20;;;108.53;;
61413;SDS011;47279;52.426;10.488;2022-10-29T06:45:26;116.85;;;107.43;;
61413;SDS011;47279;52.426;10.488;2022-10-29T06:47:52;114.60;;;105.30;;
61413;SDS011;47279;52.426;10.488;2022-10-29T06:50:18;115.35;;;105.95;;
61413;SDS011;47279;52.426;10.488;2022-10-29T06:52:52;117.03;;;107.63;;
61413;SDS011;47279;52.426;10.488;2022-10-29T06:55:18;114.70;;;105.45;;
61413;SDS011;47279;52.426;10.488;2022-10-29T06:57:44;117.38;;;107.93;;
61413;SDS011;47279;52.426;10.488;2022-10-29T07:00:10;116.20;;;106.80;;
61413;SDS011;47279;52.426;10.488;2022-10-29T07:02:36;114.22;;;104.97;;
61413;SDS011;47279;52.426;10.488;2022-10-29T07:05:02;115.00;;;105.65;;
61413;SDS011;47279;52.426;10.488;2022-10-29T07:07:28;112.72;;;103.50;;
61413;SDS011;47279;52.426;10.488;2022-10-29T07:09:54;115.22;;;106.13;;
61413;SDS011;47279;52.426;10.488;2022-10-29T07:12:20;113.60;;;104.50;;
61413;SDS011;47279;52.426;10.488;2022-10-29T07:14:46;112.28;;;103.00;;
61413;SDS011;47279;52.426;10.488;2022-10-29T07:17:12;110.68;;;101.55;;
61413;SDS011;47279;52.426;10.488;2022-10-29T07:19:38;109.55;;;100.68;;
61413;SDS011;47279;52.426;10.488;2022-10-29T07:22:04;108.07;;;99.13;;
61413;SDS011;47279;52.426;10.488;2022-10-29T07:24:29;107.93;;;99.20;;
61413;SDS011;47279;52.426;10.488;2022-10-29T07:26:55;110.28;;;101.35;;
61413;SDS011;47279;52.426;10.488;2022-10-29T07:29:21;111.28;;;102.15;;
61413;SDS011;47279;52.426;10.488;2022-10-29T07:31:47;105.28;;;96.70;;
61413;SDS011;47279;52.426;10.488;2022-10-29T07:34:13;108.35;;;99.57;;
61413;SDS011;47279;52.426;10.488;2022-10-29T07:36:39;106.50;;;97.95;;
61413;SDS011;47279;52.426;10.488;2022-10-29T07:39:05;109.88;;;100.70;;
61413;SDS011;47279;52.426;10.488;2022-10-29T07:41:31;104.30;;;95.95;;
61413;SDS011;47279;52.426;10.488;2022-10-29T07:43:58;108.03;;;99.30;;
61413;SDS011;47279;52.426;10.488;2022-10-29T07:46:24;106.47;;;97.78;;
61413;SDS011;47279;52.426;10.488;2022-10-29T07:48:50;104.85;;;96.30;;
61413;SDS011;47279;52.426;10.488;2022-10-29T07:51:15;105.22;;;96.47;;
61413;SDS011;47279;52.426;10.488;2022-10-29T07:53:41;103.55;;;95.22;;
61413;SDS011;47279;52.426;10.488;2022-10-29T07:56:07;104.35;;;95.95;;
61413;SDS011;47279;52.426;10.488;2022-10-29T07:58:33;105.78;;;97.18;;
61413;SDS011;47279;52.426;10.488;2022-10-29T08:00:59;104.75;;;96.40;;
61413;SDS011;47279;52.426;10.488;2022-10-29T08:03:25;105.75;;;97.35;;
61413;SDS011;47279;52.426;10.488;2022-10-29T08:05:51;103.68;;;95.28;;
61413;SDS011;47279;52.426;10.488;2022-10-29T08:08:21;101.20;;;93.10;;
61413;SDS011;47279;52.426;10.488;2022-10-29T08:10:47;102.55;;;94.43;;
61413;SDS011;47279;52.426;10.488;2022-10-29T08:13:12;101.30;;;93.13;;
61413;SDS011;47279;52.426;10.488;2022-10-29T08:15:38;102.07;;;93.90;;
61413;SDS011;47279;52.426;10.488;2022-10-29T08:18:08;99.82;;;91.72;;
61413;SDS011;47279;52.426;10.488;2022-10-29T08:20:35;103.85;;;95.45;;
61413;SDS011;47279;52.426;10.488;2022-10-29T08:23:01;99.30;;;91.35;;
61413;SDS011;47279;52.426;10.488;2022-10-29T08:25:27;100.18;;;92.18;;
61413;SDS011;47279;52.426;10.488;2022-10-29T08:28:00;98.53;;;90.50;;
61413;SDS011;47279;52.426;10.488;2022-10-29T08:30:26;98.35;;;90.32;;
61413;SDS011;47279;52.426;10.488;2022-10-29T08:32:53;96.07;;;88.32;;
61413;SDS011;47279;52.426;10.488;2022-10-29T08:35:19;95.22;;;87.53;;
61413;SDS011;47279;52.426;10.488;2022-10-29T08:37:44;97.15;;;89.25;;
61413;SDS011;47279;52.426;10.488;2022-10-29T08:45:24;93.88;;;86.30;;
61413;SDS011;47279;52.426;10.488;2022-10-29T08:50:39;95.38;;;87.57;;
61413;SDS011;47279;52.426;10.488;2022-10-29T08:55:58;93.53;;;86.03;;
61413;SDS011;47279;52.426;10.488;2022-10-29T08:58:32;93.88;;;86.25;;
61413;SDS011;47279;52.426;10.488;2022-10-29T09:01:00;92.72;;;85.03;;
61413;SDS011;47279;52.426;10.488;2022-10-29T09:03:26;93.72;;;86.15;;
61413;SDS011;47279;52.426;10.488;2022-10-29T09:11:43;90.90;;;83.63;;
61413;SDS011;47279;52.426;10.488;2022-10-29T09:14:24;91.10;;;83.65;;
61413;SDS011;47279;52.426;10.488;2022-10-29T09:17:00;89.47;;;82.25;;
61413;SDS011;47279;52.426;10.488;2022-10-29T09:22:04;90.22;;;82.72;;
61413;SDS011;47279;52.426;10.488;2022-10-29T09:24:48;88.65;;;81.68;;
61413;SDS011;47279;52.426;10.488;2022-10-29T09:27:36;88.93;;;81.63;;
61413;SDS011;47279;52.426;10.488;2022-10-29T09:32:34;87.50;;;80.47;;
61413;SDS011;47279;52.426;10.488;2022-10-29T09:35:09;89.78;;;82.47;;
61413;SDS011;47279;52.426;10.488;2022-10-29T09:40:16;88.20;;;81.13;;
61413;SDS011;47279;52.426;10.488;2022-10-29T09:42:43;87.40;;;80.25;;
61413;SDS011;47279;52.426;10.488;2022-10-29T09:45:12;85.28;;;78.50;;
61413;SDS011;47279;52.426;10.488;2022-10-29T09:47:49;87.53;;;80.45;;
61413;SDS011;47279;52.426;10.488;2022-10-29T09:52:45;88.38;;;81.38;;
61413;SDS011;47279;52.426;10.488;2022-10-29T09:55:23;84.10;;;77.25;;
61413;SDS011;47279;52.426;10.488;2022-10-29T09:57:50;86.18;;;79.28;;
61413;SDS011;47279;52.426;10.488;2022-10-29T10:00:18;87.45;;;80.50;;
61413;SDS011;47279;52.426;10.488;2022-10-29T10:05:33;85.47;;;78.60;;
61413;SDS011;47279;52.426;10.488;2022-10-29T10:10:25;85.68;;;78.75;;
61413;SDS011;47279;52.426;10.488;2022-10-29T10:12:51;85.18;;;78.18;;
61413;SDS011;47279;52.426;10.488;2022-10-29T10:20:25;83.85;;;77.13;;
61413;SDS011;47279;52.426;10.488;2022-10-29T10:22:52;83.28;;;76.65;;
61413;SDS011;47279;52.426;10.488;2022-10-29T10:27:56;82.15;;;75.43;;
61413;SDS011;47279;52.426;10.488;2022-10-29T10:30:22;83.03;;;76.22;;
61413;SDS011;47279;52.426;10.488;2022-10-29T10:32:49;84.50;;;77.60;;
61413;SDS011;47279;52.426;10.488;2022-10-29T10:35:23;82.40;;;75.78;;
61413;SDS011;47279;52.426;10.488;2022-10-29T10:37:49;82.53;;;75.85;;
61413;SDS011;47279;52.426;10.488;2022-10-29T10:40:20;81.03;;;74.38;;
61413;SDS011;47279;52.426;10.488;2022-10-29T10:42:48;79.95;;;73.45;;
61413;SDS011;47279;52.426;10.488;2022-10-29T10:45:15;78.68;;;72.18;;
61413;SDS011;47279;52.426;10.488;2022-10-29T10:47:46;80.72;;;74.13;;
61413;SDS011;47279;52.426;10.488;2022-10-29T10:50:17;81.18;;;74.57;;
61413;SDS011;47279;52.426;10.488;2022-10-29T10:52:45;80.47;;;73.95;;
61413;SDS011;47279;52.426;10.488;2022-10-29T10:55:17;79.15;;;72.78;;
61413;SDS011;47279;52.426;10.488;2022-10-29T10:58:09;80.18;;;73.63;;
61413;SDS011;47279;52.426;10.488;2022-10-29T11:00:58;80.88;;;74.38;;
61413;SDS011;47279;52.426;10.488;2022-10-29T11:03:20;78.10;;;71.80;;
61413;SDS011;47279;52.426;10.488;2022-10-29T11:05:52;79.40;;;72.93;;
61413;SDS011;47279;52.426;10.488;2022-10-29T11:11:09;78.32;;;71.97;;
61413;SDS011;47279;52.426;10.488;2022-10-29T11:13:36;76.65;;;70.40;;
61413;SDS011;47279;52.426;10.488;2022-10-29T11:16:11;80.18;;;73.43;;
61413;SDS011;47279;52.426;10.488;2022-10-29T11:18:40;77.70;;;71.43;;
61413;SDS011;47279;52.426;10.488;2022-10-29T11:21:10;78.40;;;72.00;;
61413;SDS011;47279;52.426;10.488;2022-10-29T11:26:29;76.90;;;70.70;;
61413;SDS011;47279;52.426;10.488;2022-10-29T11:34:07;76.20;;;69.95;;
61413;SDS011;47279;52.426;10.488;2022-10-29T11:36:39;75.45;;;69.35;;
61413;SDS011;47279;52.426;10.488;2022-10-29T11:39:08;75.65;;;69.45;;
61413;SDS011;47279;52.426;10.488;2022-10-29T11:41:49;74.78;;;68.68;;
61413;SDS011;47279;52.426;10.488;2022-10-29T11:44:16;75.95;;;69.75;;
61413;SDS011;47279;52.426;10.488;2022-10-29T11:52:04;75.03;;;68.82;;
61413;SDS011;47279;52.426;10.488;2022-10-29T11:54:42;74.47;;;68.47;;
61413;SDS011;47279;52.426;10.488;2022-10-29T11:57:14;72.35;;;66.50;;
61413;SDS011;47279;52.426;10.488;2022-10-29T12:00:03;73.00;;;67.10;;
61413;SDS011;47279;52.426;10.488;2022-10-29T12:12:54;72.93;;;66.93;;
61413;SDS011;47279;52.426;10.488;2022-10-29T12:15:44;71.05;;;65.25;;
61413;SDS011;47279;52.426;10.488;2022-10-29T12:18:17;72.22;;;66.30;;
61413;SDS011;47279;52.426;10.488;2022-10-29T12:23:53;70.85;;;64.97;;
61413;SDS011;47279;52.426;10.488;2022-10-29T12:29:34;71.75;;;65.95;;
61413;SDS011;47279;52.426;10.488;2022-10-29T12:31:57;71.53;;;65.63;;
61413;SDS011;47279;52.426;10.488;2022-10-29T12:34:30;70.13;;;64.43;;
61413;SDS011;47279;52.426;10.488;2022-10-29T12:36:59;71.80;;;66.00;;
61413;SDS011;47279;52.426;10.488;2022-10-29T12:39:31;70.93;;;65.03;;
61413;SDS011;47279;52.426;10.488;2022-10-29T12:42:21;68.53;;;62.83;;
61413;SDS011;47279;52.426;10.488;2022-10-29T12:49:56;70.40;;;64.60;;
61413;SDS011;47279;52.426;10.488;2022-10-29T12:54:53;71.00;;;65.20;;
61413;SDS011;47279;52.426;10.488;2022-10-29T12:57:30;70.38;;;64.57;;
61413;SDS011;47279;52.426;10.488;2022-10-29T12:59:56;70.22;;;64.45;;
61413;SDS011;47279;52.426;10.488;2022-10-29T13:02:26;68.25;;;62.60;;
61413;SDS011;47279;52.426;10.488;2022-10-29T13:07:31;69.93;;;64.30;;
61413;SDS011;47279;52.426;10.488;2022-10-29T13:17:51;69.53;;;63.83;;
61413;SDS011;47279;52.426;10.488;2022-10-29T13:20:19;66.57;;;61.15;;
61413;SDS011;47279;52.426;10.488;2022-10-29T13:22:50;66.75;;;61.10;;
61413;SDS011;47279;52.426;10.488;2022-10-29T13:28:40;68.15;;;62.55;;
61413;SDS011;47279;52.426;10.488;2022-10-29T13:38:38;66.78;;;61.17;;
61413;SDS011;47279;52.426;10.488;2022-10-29T13:41:12;65.20;;;59.85;;
61413;SDS011;47279;52.426;10.488;2022-10-29T13:43:39;65.47;;;60.17;;
61413;SDS011;47279;52.426;10.488;2022-10-29T13:48:34;64.57;;;59.33;;
61413;SDS011;47279;52.426;10.488;2022-10-29T13:51:05;64.20;;;58.95;;
61413;SDS011;47279;52.426;10.488;2022-10-29T13:53:40;66.35;;;60.80;;
61413;SDS011;47279;52.426;10.488;2022-10-29T13:56:12;64.90;;;59.53;;
61413;SDS011;47279;52.426;10.488;2022-10-29T13:58:39;62.28;;;57.08;;
61413;SDS011;47279;52.426;10.488;2022-10-29T14:01:08;65.28;;;59.90;;
61413;SDS011;47279;52.426;10.488;2022-10-29T14:06:07;63.80;;;58.60;;
61413;SDS011;47279;52.426;10.488;2022-10-29T14:08:40;63.78;;;58.55;;
61413;SDS011;47279;52.426;10.488;2022-10-29T14:11:52;63.72;;;58.42;;
61413;SDS011;47279;52.426;10.488;2022-10-29T14:13:58;63.57;;;58.30;;
61413;SDS011;47279;52.426;10.488;2022-10-29T14:16:27;63.10;;;57.97;;
61413;SDS011;47279;52.426;10.488;2022-10-29T14:18:53;63.33;;;58.13;;
61413;SDS011;47279;52.426;10.488;2022-10-29T14:21:26;62.13;;;57.03;;
61413;SDS011;47279;52.426;10.488;2022-10-29T14:26:25;61.72;;;56.70;;
61413;SDS011;47279;52.426;10.488;2022-10-29T14:28:51;62.80;;;57.67;;
61413;SDS011;47279;52.426;10.488;2022-10-29T14:31:19;62.15;;;57.13;;
61413;SDS011;47279;52.426;10.488;2022-10-29T14:33:54;61.55;;;56.53;;
61413;SDS011;47279;52.426;10.488;2022-10-29T14:36:38;61.78;;;56.78;;
61413;SDS011;47279;52.426;10.488;2022-10-29T14:41:36;59.17;;;54.38;;
61413;SDS011;47279;52.426;10.488;2022-10-29T14:44:19;59.83;;;54.88;;
61413;SDS011;47279;52.426;10.488;2022-10-29T14:46:53;61.55;;;56.55;;
61413;SDS011;47279;52.426;10.488;2022-10-29T14:49:22;61.55;;;56.45;;
61413;SDS011;47279;52.426;10.488;2022-10-29T14:51:53;61.40;;;56.40;;
61413;SDS011;47279;52.426;10.488;2022-10-29T14:54:38;61.13;;;56.13;;
61413;SDS011;47279;52.426;10.488;2022-10-29T14:57:06;61.30;;;56.33;;
61413;SDS011;47279;52.426;10.488;2022-10-29T14:59:34;59.42;;;54.53;;
61413;SDS011;47279;52.426;10.488;2022-10-29T15:02:01;59.88;;;55.08;;
61413;SDS011;47279;52.426;10.488;2022-10-29T15:04:29;60.28;;;55.28;;
61413;SDS011;47279;52.426;10.488;2022-10-29T15:07:12;60.38;;;55.47;;
61413;SDS011;47279;52.426;10.488;2022-10-29T15:09:39;58.90;;;54.00;;
61413;SDS011;47279;52.426;10.488;2022-10-29T15:12:06;59.72;;;54.88;;
61413;SDS011;47279;52.426;10.488;2022-10-29T15:14:34;59.53;;;54.75;;
61413;SDS011;47279;52.426;10.488;2022-10-29T15:17:06;60.05;;;55.15;;
61413;SDS011;47279;52.426;10.488;2022-10-29T15:19:32;59.63;;;54.72;;
61413;SDS011;47279;52.426;10.488;2022-10-29T15:21:58;59.75;;;54.85;;
61413;SDS011;47279;52.426;10.488;2022-10-29T15:24:24;59.03;;;54.28;;
61413;SDS011;47279;52.426;10.488;2022-10-29T15:26:51;58.53;;;53.72;;
61413;SDS011;47279;52.426;10.488;2022-10-29T15:29:21;58.63;;;53.83;;
61413;SDS011;47279;52.426;10.488;2022-10-29T15:31:48;58.53;;;53.67;;
61413;SDS011;47279;52.426;10.488;2022-10-29T15:36:53;57.50;;;52.83;;
61413;SDS011;47279;52.426;10.488;2022-10-29T15:39:27;57.92;;;53.20;;
61413;SDS011;47279;52.426;10.488;2022-10-29T15:41:57;57.40;;;52.70;;
61413;SDS011;47279;52.426;10.488;2022-10-29T15:46:52;58.42;;;53.53;;
61413;SDS011;47279;52.426;10.488;2022-10-29T15:49:22;58.05;;;53.25;;
61413;SDS011;47279;52.426;10.488;2022-10-29T15:51:48;56.53;;;51.97;;
61413;SDS011;47279;52.426;10.488;2022-10-29T15:54:14;54.58;;;50.17;;
61413;SDS011;47279;52.426;10.488;2022-10-29T15:56:40;56.88;;;52.28;;
61413;SDS011;47279;52.426;10.488;2022-10-29T15:59:08;57.50;;;52.90;;
61413;SDS011;47279;52.426;10.488;2022-10-29T16:01:35;55.53;;;50.92;;
61413;SDS011;47279;52.426;10.488;2022-10-29T16:04:01;57.58;;;52.95;;
61413;SDS011;47279;52.426;10.488;2022-10-29T16:06:27;57.78;;;53.03;;
61413;SDS011;47279;52.426;10.488;2022-10-29T16:08:53;56.17;;;51.72;;
61413;SDS011;47279;52.426;10.488;2022-10-29T16:11:20;54.92;;;50.42;;
61413;SDS011;47279;52.426;10.488;2022-10-29T16:13:47;54.45;;;50.03;;
61413;SDS011;47279;52.426;10.488;2022-10-29T16:16:14;52.97;;;48.67;;
61413;SDS011;47279;52.426;10.488;2022-10-29T16:18:41;54.80;;;50.40;;
61413;SDS011;47279;52.426;10.488;2022-10-29T16:21:07;54.05;;;49.63;;
61413;SDS011;47279;52.426;10.488;2022-10-29T16:23:35;53.78;;;49.47;;
61413;SDS011;47279;52.426;10.488;2022-10-29T16:26:01;54.70;;;50.22;;
61413;SDS011;47279;52.426;10.488;2022-10-29T16:28:27;54.60;;;50.10;;
61413;SDS011;47279;52.426;10.488;2022-10-29T16:30:54;54.80;;;50.40;;
61413;SDS011;47279;52.426;10.488;2022-10-29T16:33:21;52.35;;;48.17;;
61413;SDS011;47279;52.426;10.488;2022-10-29T16:35:46;54.17;;;49.80;;
61413;SDS011;47279;52.426;10.488;2022-10-29T16:38:12;52.20;;;47.95;;
61413;SDS011;47279;52.426;10.488;2022-10-29T16:40:40;53.67;;;49.38;;